sensor_id;sensor_type;location;lat;lon;timestamp;temperature;humidity
20833;DHT22;56075;51.264;7.150;2023-06-26T00:02:27;24.70;87.50
20833;DHT22;56075;51.264;7.150;2023-06-26T00:04:59;24.70;87.70
20833;DHT22;56075;51.264;7.150;2023-06-26T00:07:33;24.80;88.00
20833;DHT22;56075;51.264;7.150;2023-06-26T00:10:07;24.60;87.60
20833;DHT22;56075;51.264;7.150;2023-06-26T00:12:38;24.50;87.90
20833;DHT22;56075;51.264;7.150;2023-06-26T00:15:09;24.50;88.10
20833;DHT22;56075;51.264;7.150;2023-06-26T00:17:41;24.40;87.90
20833;DHT22;56075;51.264;7.150;2023-06-26T00:20:12;25.30;88.60
20833;DHT22;56075;51.264;7.150;2023-06-26T00:22:45;24.40;88.30
20833;DHT22;56075;51.264;7.150;2023-06-26T00:25:17;24.40;88.50
20833;DHT22;56075;51.264;7.150;2023-06-26T00:27:48;24.40;88.70
20833;DHT22;56075;51.264;7.150;2023-06-26T00:30:19;24.70;89.30
20833;DHT22;56075;51.264;7.150;2023-06-26T00:32:50;24.20;89.00
20833;DHT22;56075;51.264;7.150;2023-06-26T00:35:22;24.20;89.30
20833;DHT22;56075;51.264;7.150;2023-06-26T00:37:53;24.10;89.10
20833;DHT22;56075;51.264;7.150;2023-06-26T00:40:24;24.30;89.60
20833;DHT22;56075;51.264;7.150;2023-06-26T00:42:57;24.20;90.00
20833;DHT22;56075;51.264;7.150;2023-06-26T00:45:29;24.20;90.50
20833;DHT22;56075;51.264;7.150;2023-06-26T00:48:01;23.90;90.10
20833;DHT22;56075;51.264;7.150;2023-06-26T00:50:34;24.50;90.40
20833;DHT22;56075;51.264;7.150;2023-06-26T00:53:05;23.70;90.30
20833;DHT22;56075;51.264;7.150;2023-06-26T00:55:36;23.90;90.40
20833;DHT22;56075;51.264;7.150;2023-06-26T00:58:08;23.70;90.50
20833;DHT22;56075;51.264;7.150;2023-06-26T01:00:39;23.50;90.50
20833;DHT22;56075;51.264;7.150;2023-06-26T01:03:12;23.70;90.60
20833;DHT22;56075;51.264;7.150;2023-06-26T01:05:43;23.60;90.40
20833;DHT22;56075;51.264;7.150;2023-06-26T01:08:17;24.20;90.70
20833;DHT22;56075;51.264;7.150;2023-06-26T01:10:49;24.10;90.80
20833;DHT22;56075;51.264;7.150;2023-06-26T01:13:21;23.40;90.60
20833;DHT22;56075;51.264;7.150;2023-06-26T01:15:53;23.40;90.80
20833;DHT22;56075;51.264;7.150;2023-06-26T01:18:26;23.30;90.80
20833;DHT22;56075;51.264;7.150;2023-06-26T01:20:58;23.30;90.80
20833;DHT22;56075;51.264;7.150;2023-06-26T01:24:02;23.60;91.10
20833;DHT22;56075;51.264;7.150;2023-06-26T01:26:30;23.20;91.10
20833;DHT22;56075;51.264;7.150;2023-06-26T01:29:03;23.10;91.10
20833;DHT22;56075;51.264;7.150;2023-06-26T01:31:36;23.10;91.20
20833;DHT22;56075;51.264;7.150;2023-06-26T01:34:07;23.00;91.10
20833;DHT22;56075;51.264;7.150;2023-06-26T01:36:39;23.10;91.20
20833;DHT22;56075;51.264;7.150;2023-06-26T01:39:10;23.10;91.30
20833;DHT22;56075;51.264;7.150;2023-06-26T01:41:41;23.00;91.30
20833;DHT22;56075;51.264;7.150;2023-06-26T01:44:30;23.00;91.40
20833;DHT22;56075;51.264;7.150;2023-06-26T01:47:04;22.90;91.60
20833;DHT22;56075;51.264;7.150;2023-06-26T01:50:09;22.90;91.70
20833;DHT22;56075;51.264;7.150;2023-06-26T01:52:41;22.80;91.90
20833;DHT22;56075;51.264;7.150;2023-06-26T01:55:21;23.30;92.00
20833;DHT22;56075;51.264;7.150;2023-06-26T01:57:56;22.70;92.00
20833;DHT22;56075;51.264;7.150;2023-06-26T02:00:28;22.70;92.10
20833;DHT22;56075;51.264;7.150;2023-06-26T02:03:00;22.70;92.20
20833;DHT22;56075;51.264;7.150;2023-06-26T02:05:32;22.50;92.20
20833;DHT22;56075;51.264;7.150;2023-06-26T02:08:05;22.50;92.40
20833;DHT22;56075;51.264;7.150;2023-06-26T02:10:36;22.60;92.50
20833;DHT22;56075;51.264;7.150;2023-06-26T02:13:07;22.40;92.50
20833;DHT22;56075;51.264;7.150;2023-06-26T02:15:39;22.30;92.40
20833;DHT22;56075;51.264;7.150;2023-06-26T02:18:10;23.10;92.40
20833;DHT22;56075;51.264;7.150;2023-06-26T02:20:42;22.50;92.50
20833;DHT22;56075;51.264;7.150;2023-06-26T02:23:14;22.20;92.70
20833;DHT22;56075;51.264;7.150;2023-06-26T02:25:46;22.30;92.80
20833;DHT22;56075;51.264;7.150;2023-06-26T02:28:18;22.20;92.90
20833;DHT22;56075;51.264;7.150;2023-06-26T02:30:49;22.40;93.00
20833;DHT22;56075;51.264;7.150;2023-06-26T02:33:20;22.30;93.10
20833;DHT22;56075;51.264;7.150;2023-06-26T02:35:53;22.10;93.30
20833;DHT22;56075;51.264;7.150;2023-06-26T02:38:24;22.10;93.20
20833;DHT22;56075;51.264;7.150;2023-06-26T02:40:55;21.90;93.30
20833;DHT22;56075;51.264;7.150;2023-06-26T02:43:27;22.00;93.40
20833;DHT22;56075;51.264;7.150;2023-06-26T02:45:58;21.90;93.50
20833;DHT22;56075;51.264;7.150;2023-06-26T02:48:29;22.00;93.50
20833;DHT22;56075;51.264;7.150;2023-06-26T02:51:00;22.00;93.50
20833;DHT22;56075;51.264;7.150;2023-06-26T02:53:34;22.10;93.40
20833;DHT22;56075;51.264;7.150;2023-06-26T02:56:05;21.90;93.50
20833;DHT22;56075;51.264;7.150;2023-06-26T02:58:37;22.00;93.50
20833;DHT22;56075;51.264;7.150;2023-06-26T03:01:08;21.80;93.40
20833;DHT22;56075;51.264;7.150;2023-06-26T03:03:41;21.80;93.50
20833;DHT22;56075;51.264;7.150;2023-06-26T03:06:15;22.70;93.90
20833;DHT22;56075;51.264;7.150;2023-06-26T03:08:47;21.80;93.70
20833;DHT22;56075;51.264;7.150;2023-06-26T03:11:20;21.90;93.70
20833;DHT22;56075;51.264;7.150;2023-06-26T03:13:51;22.00;93.70
20833;DHT22;56075;51.264;7.150;2023-06-26T03:16:23;21.80;93.60
20833;DHT22;56075;51.264;7.150;2023-06-26T03:18:54;21.80;93.50
20833;DHT22;56075;51.264;7.150;2023-06-26T03:21:25;21.90;93.50
20833;DHT22;56075;51.264;7.150;2023-06-26T03:23:56;22.10;93.30
20833;DHT22;56075;51.264;7.150;2023-06-26T03:26:27;22.00;93.00
20833;DHT22;56075;51.264;7.150;2023-06-26T03:29:00;22.70;93.10
20833;DHT22;56075;51.264;7.150;2023-06-26T03:31:31;22.30;92.50
20833;DHT22;56075;51.264;7.150;2023-06-26T03:34:03;22.30;92.50
20833;DHT22;56075;51.264;7.150;2023-06-26T03:36:34;23.40;92.70
20833;DHT22;56075;51.264;7.150;2023-06-26T03:39:07;23.10;92.50
20833;DHT22;56075;51.264;7.150;2023-06-26T03:41:38;22.60;92.20
20833;DHT22;56075;51.264;7.150;2023-06-26T03:44:09;22.60;92.20
20833;DHT22;56075;51.264;7.150;2023-06-26T03:46:50;22.60;92.10
20833;DHT22;56075;51.264;7.150;2023-06-26T03:49:22;23.30;92.30
20833;DHT22;56075;51.264;7.150;2023-06-26T03:51:53;22.50;92.10
20833;DHT22;56075;51.264;7.150;2023-06-26T03:54:24;22.60;92.20
20833;DHT22;56075;51.264;7.150;2023-06-26T03:56:55;22.70;92.30
20833;DHT22;56075;51.264;7.150;2023-06-26T03:59:26;22.70;92.40
20833;DHT22;56075;51.264;7.150;2023-06-26T04:01:57;22.40;92.40
20833;DHT22;56075;51.264;7.150;2023-06-26T04:04:29;22.50;92.60
20833;DHT22;56075;51.264;7.150;2023-06-26T04:07:01;22.40;92.70
20833;DHT22;56075;51.264;7.150;2023-06-26T04:09:32;22.50;92.80
20833;DHT22;56075;51.264;7.150;2023-06-26T04:12:03;22.80;93.10
20833;DHT22;56075;51.264;7.150;2023-06-26T04:14:34;22.20;93.10
20833;DHT22;56075;51.264;7.150;2023-06-26T04:17:05;22.40;93.30
20833;DHT22;56075;51.264;7.150;2023-06-26T04:19:37;22.30;93.50
20833;DHT22;56075;51.264;7.150;2023-06-26T04:22:08;22.30;93.80
20833;DHT22;56075;51.264;7.150;2023-06-26T04:24:39;22.20;93.80
20833;DHT22;56075;51.264;7.150;2023-06-26T04:27:10;22.10;94.00
20833;DHT22;56075;51.264;7.150;2023-06-26T04:29:41;22.00;94.20
20833;DHT22;56075;51.264;7.150;2023-06-26T04:32:13;22.00;94.40
20833;DHT22;56075;51.264;7.150;2023-06-26T04:34:44;22.00;94.60
20833;DHT22;56075;51.264;7.150;2023-06-26T04:37:15;21.90;94.80
20833;DHT22;56075;51.264;7.150;2023-06-26T04:39:49;22.00;94.90
20833;DHT22;56075;51.264;7.150;2023-06-26T04:42:21;21.90;95.30
20833;DHT22;56075;51.264;7.150;2023-06-26T04:44:52;22.90;95.80
20833;DHT22;56075;51.264;7.150;2023-06-26T04:47:23;21.80;95.50
20833;DHT22;56075;51.264;7.150;2023-06-26T04:49:54;22.00;95.70
20833;DHT22;56075;51.264;7.150;2023-06-26T04:52:26;21.70;95.60
20833;DHT22;56075;51.264;7.150;2023-06-26T04:54:57;21.70;95.80
20833;DHT22;56075;51.264;7.150;2023-06-26T04:57:28;21.90;96.10
20833;DHT22;56075;51.264;7.150;2023-06-26T04:59:59;21.90;96.20
20833;DHT22;56075;51.264;7.150;2023-06-26T05:02:31;21.60;96.40
20833;DHT22;56075;51.264;7.150;2023-06-26T05:05:03;22.00;96.60
20833;DHT22;56075;51.264;7.150;2023-06-26T05:07:34;21.70;96.60
20833;DHT22;56075;51.264;7.150;2023-06-26T05:10:05;21.60;96.60
20833;DHT22;56075;51.264;7.150;2023-06-26T05:12:37;21.60;96.60
20833;DHT22;56075;51.264;7.150;2023-06-26T05:15:09;21.80;96.80
20833;DHT22;56075;51.264;7.150;2023-06-26T05:17:40;21.70;96.70
20833;DHT22;56075;51.264;7.150;2023-06-26T05:20:11;22.60;97.00
20833;DHT22;56075;51.264;7.150;2023-06-26T05:22:42;21.80;96.80
20833;DHT22;56075;51.264;7.150;2023-06-26T05:25:14;21.80;96.80
20833;DHT22;56075;51.264;7.150;2023-06-26T05:27:47;21.80;96.80
20833;DHT22;56075;51.264;7.150;2023-06-26T05:30:18;21.70;96.70
20833;DHT22;56075;51.264;7.150;2023-06-26T05:32:51;21.80;96.60
20833;DHT22;56075;51.264;7.150;2023-06-26T05:35:22;21.90;96.80
20833;DHT22;56075;51.264;7.150;2023-06-26T05:37:55;21.80;96.80
20833;DHT22;56075;51.264;7.150;2023-06-26T05:40:26;21.80;96.80
20833;DHT22;56075;51.264;7.150;2023-06-26T05:42:57;22.00;96.80
20833;DHT22;56075;51.264;7.150;2023-06-26T05:45:29;22.00;96.70
20833;DHT22;56075;51.264;7.150;2023-06-26T05:48:00;22.00;96.60
20833;DHT22;56075;51.264;7.150;2023-06-26T05:50:31;22.00;97.10
20833;DHT22;56075;51.264;7.150;2023-06-26T05:53:03;21.90;96.80
20833;DHT22;56075;51.264;7.150;2023-06-26T05:55:34;22.00;96.80
20833;DHT22;56075;51.264;7.150;2023-06-26T05:58:05;22.30;96.90
20833;DHT22;56075;51.264;7.150;2023-06-26T06:00:38;21.90;96.80
20833;DHT22;56075;51.264;7.150;2023-06-26T06:03:10;22.00;96.80
20833;DHT22;56075;51.264;7.150;2023-06-26T06:05:41;21.90;96.80
20833;DHT22;56075;51.264;7.150;2023-06-26T06:08:13;21.90;96.80
20833;DHT22;56075;51.264;7.150;2023-06-26T06:10:44;22.10;96.90
20833;DHT22;56075;51.264;7.150;2023-06-26T06:13:15;22.40;96.90
20833;DHT22;56075;51.264;7.150;2023-06-26T06:15:46;21.90;96.70
20833;DHT22;56075;51.264;7.150;2023-06-26T06:18:18;22.10;96.60
20833;DHT22;56075;51.264;7.150;2023-06-26T06:20:49;22.30;96.70
20833;DHT22;56075;51.264;7.150;2023-06-26T06:23:20;22.20;96.60
20833;DHT22;56075;51.264;7.150;2023-06-26T06:25:51;22.30;96.70
20833;DHT22;56075;51.264;7.150;2023-06-26T06:28:22;22.30;96.80
20833;DHT22;56075;51.264;7.150;2023-06-26T06:30:53;22.00;96.80
20833;DHT22;56075;51.264;7.150;2023-06-26T06:33:24;22.10;96.80
20833;DHT22;56075;51.264;7.150;2023-06-26T06:35:55;22.30;96.70
20833;DHT22;56075;51.264;7.150;2023-06-26T06:38:26;22.50;96.70
20833;DHT22;56075;51.264;7.150;2023-06-26T06:40:58;22.40;96.50
20833;DHT22;56075;51.264;7.150;2023-06-26T06:43:29;22.40;96.50
20833;DHT22;56075;51.264;7.150;2023-06-26T06:46:00;22.40;96.40
20833;DHT22;56075;51.264;7.150;2023-06-26T06:48:31;22.60;96.40
20833;DHT22;56075;51.264;7.150;2023-06-26T06:51:03;22.60;96.50
20833;DHT22;56075;51.264;7.150;2023-06-26T06:53:34;22.60;96.40
20833;DHT22;56075;51.264;7.150;2023-06-26T06:56:05;22.60;96.30
20833;DHT22;56075;51.264;7.150;2023-06-26T06:58:37;22.80;96.20
20833;DHT22;56075;51.264;7.150;2023-06-26T07:01:12;23.10;96.50
20833;DHT22;56075;51.264;7.150;2023-06-26T07:03:44;22.50;96.40
20833;DHT22;56075;51.264;7.150;2023-06-26T07:06:15;22.70;96.40
20833;DHT22;56075;51.264;7.150;2023-06-26T07:08:46;22.70;96.60
20833;DHT22;56075;51.264;7.150;2023-06-26T07:11:17;22.40;96.70
20833;DHT22;56075;51.264;7.150;2023-06-26T07:13:49;22.30;96.80
20833;DHT22;56075;51.264;7.150;2023-06-26T07:16:20;22.40;96.90
20833;DHT22;56075;51.264;7.150;2023-06-26T07:18:51;22.50;97.00
20833;DHT22;56075;51.264;7.150;2023-06-26T07:21:22;22.40;97.20
20833;DHT22;56075;51.264;7.150;2023-06-26T07:23:54;22.40;97.40
20833;DHT22;56075;51.264;7.150;2023-06-26T07:26:25;22.40;97.40
20833;DHT22;56075;51.264;7.150;2023-06-26T07:28:56;23.40;97.40
20833;DHT22;56075;51.264;7.150;2023-06-26T07:31:27;22.80;97.00
20833;DHT22;56075;51.264;7.150;2023-06-26T07:33:58;22.80;96.80
20833;DHT22;56075;51.264;7.150;2023-06-26T07:36:29;22.80;96.70
20833;DHT22;56075;51.264;7.150;2023-06-26T07:39:01;23.10;96.80
20833;DHT22;56075;51.264;7.150;2023-06-26T07:41:32;22.60;96.80
20833;DHT22;56075;51.264;7.150;2023-06-26T07:44:03;22.70;97.00
20833;DHT22;56075;51.264;7.150;2023-06-26T07:46:34;22.60;96.90
20833;DHT22;56075;51.264;7.150;2023-06-26T07:49:05;22.70;96.80
20833;DHT22;56075;51.264;7.150;2023-06-26T07:51:38;22.60;96.90
20833;DHT22;56075;51.264;7.150;2023-06-26T07:54:09;22.50;97.00
20833;DHT22;56075;51.264;7.150;2023-06-26T07:59:28;22.70;97.20
20833;DHT22;56075;51.264;7.150;2023-06-26T08:02:00;22.70;97.30
20833;DHT22;56075;51.264;7.150;2023-06-26T08:04:32;22.60;97.20
20833;DHT22;56075;51.264;7.150;2023-06-26T08:07:04;21.10;97.10
20833;DHT22;56075;51.264;7.150;2023-06-26T08:09:37;22.70;97.20
20833;DHT22;56075;51.264;7.150;2023-06-26T08:12:08;23.10;97.30
20833;DHT22;56075;51.264;7.150;2023-06-26T08:14:39;22.60;97.30
20833;DHT22;56075;51.264;7.150;2023-06-26T08:17:10;22.50;97.40
20833;DHT22;56075;51.264;7.150;2023-06-26T08:19:41;22.80;97.40
20833;DHT22;56075;51.264;7.150;2023-06-26T08:22:12;22.60;97.50
20833;DHT22;56075;51.264;7.150;2023-06-26T08:24:44;22.60;97.50
20833;DHT22;56075;51.264;7.150;2023-06-26T08:27:15;22.70;97.50
20833;DHT22;56075;51.264;7.150;2023-06-26T08:29:46;22.80;97.20
20833;DHT22;56075;51.264;7.150;2023-06-26T08:32:17;23.00;97.40
20833;DHT22;56075;51.264;7.150;2023-06-26T08:34:49;23.10;97.30
20833;DHT22;56075;51.264;7.150;2023-06-26T08:37:21;23.30;97.10
20833;DHT22;56075;51.264;7.150;2023-06-26T08:39:52;23.20;96.90
20833;DHT22;56075;51.264;7.150;2023-06-26T08:42:23;23.40;96.90
20833;DHT22;56075;51.264;7.150;2023-06-26T08:44:55;23.40;96.80
20833;DHT22;56075;51.264;7.150;2023-06-26T08:47:27;23.40;96.80
20833;DHT22;56075;51.264;7.150;2023-06-26T08:50:08;23.70;96.70
20833;DHT22;56075;51.264;7.150;2023-06-26T08:52:46;23.60;96.50
20833;DHT22;56075;51.264;7.150;2023-06-26T08:55:23;24.00;96.40
20833;DHT22;56075;51.264;7.150;2023-06-26T08:57:55;24.00;96.20
20833;DHT22;56075;51.264;7.150;2023-06-26T09:00:26;24.60;96.30
20833;DHT22;56075;51.264;7.150;2023-06-26T09:02:59;24.00;96.10
20833;DHT22;56075;51.264;7.150;2023-06-26T09:05:30;24.10;96.00
20833;DHT22;56075;51.264;7.150;2023-06-26T09:08:04;24.00;95.60
20833;DHT22;56075;51.264;7.150;2023-06-26T09:10:36;24.10;95.80
20833;DHT22;56075;51.264;7.150;2023-06-26T09:13:08;24.00;95.70
20833;DHT22;56075;51.264;7.150;2023-06-26T09:15:44;24.10;95.50
20833;DHT22;56075;51.264;7.150;2023-06-26T09:18:17;24.00;95.50
20833;DHT22;56075;51.264;7.150;2023-06-26T09:20:50;24.00;95.70
20833;DHT22;56075;51.264;7.150;2023-06-26T09:23:21;23.90;95.80
20833;DHT22;56075;51.264;7.150;2023-06-26T09:25:53;23.80;95.80
20833;DHT22;56075;51.264;7.150;2023-06-26T09:28:25;23.80;95.90
20833;DHT22;56075;51.264;7.150;2023-06-26T09:31:01;23.60;95.90
20833;DHT22;56075;51.264;7.150;2023-06-26T09:33:34;23.60;95.90
20833;DHT22;56075;51.264;7.150;2023-06-26T09:36:19;23.40;95.90
20833;DHT22;56075;51.264;7.150;2023-06-26T09:38:50;23.20;96.10
20833;DHT22;56075;51.264;7.150;2023-06-26T09:41:22;23.60;96.30
20833;DHT22;56075;51.264;7.150;2023-06-26T09:43:53;23.20;96.10
20833;DHT22;56075;51.264;7.150;2023-06-26T09:49:03;23.30;96.20
20833;DHT22;56075;51.264;7.150;2023-06-26T09:51:39;23.50;96.00
20833;DHT22;56075;51.264;7.150;2023-06-26T09:54:10;23.50;95.70
20833;DHT22;56075;51.264;7.150;2023-06-26T09:56:41;23.30;95.30
20833;DHT22;56075;51.264;7.150;2023-06-26T09:59:13;23.80;95.30
20833;DHT22;56075;51.264;7.150;2023-06-26T10:01:46;23.70;95.20
20833;DHT22;56075;51.264;7.150;2023-06-26T10:04:17;23.70;95.10
20833;DHT22;56075;51.264;7.150;2023-06-26T10:06:49;23.70;94.90
20833;DHT22;56075;51.264;7.150;2023-06-26T10:09:23;24.20;95.10
20833;DHT22;56075;51.264;7.150;2023-06-26T10:12:02;23.80;94.90
20833;DHT22;56075;51.264;7.150;2023-06-26T10:14:37;23.80;94.60
20833;DHT22;56075;51.264;7.150;2023-06-26T10:17:11;23.90;94.30
20833;DHT22;56075;51.264;7.150;2023-06-26T10:19:45;23.80;93.90
20833;DHT22;56075;51.264;7.150;2023-06-26T10:22:17;23.90;93.80
20833;DHT22;56075;51.264;7.150;2023-06-26T10:24:49;23.80;93.70
20833;DHT22;56075;51.264;7.150;2023-06-26T10:27:23;23.90;93.60
20833;DHT22;56075;51.264;7.150;2023-06-26T10:29:57;23.60;93.50
20833;DHT22;56075;51.264;7.150;2023-06-26T10:32:29;23.70;93.50
20833;DHT22;56075;51.264;7.150;2023-06-26T10:35:01;23.90;93.30
20833;DHT22;56075;51.264;7.150;2023-06-26T10:37:50;23.70;93.40
20833;DHT22;56075;51.264;7.150;2023-06-26T10:40:28;21.90;93.00
20833;DHT22;56075;51.264;7.150;2023-06-26T10:43:12;23.80;93.40
20833;DHT22;56075;51.264;7.150;2023-06-26T10:45:54;24.10;93.40
20833;DHT22;56075;51.264;7.150;2023-06-26T10:48:29;24.00;93.00
20833;DHT22;56075;51.264;7.150;2023-06-26T10:51:13;24.50;92.90
20833;DHT22;56075;51.264;7.150;2023-06-26T10:53:53;24.60;92.70
20833;DHT22;56075;51.264;7.150;2023-06-26T10:56:44;24.60;92.20
20833;DHT22;56075;51.264;7.150;2023-06-26T11:04:50;24.50;91.70
20833;DHT22;56075;51.264;7.150;2023-06-26T11:07:25;24.60;91.30
20833;DHT22;56075;51.264;7.150;2023-06-26T11:10:08;24.60;91.50
20833;DHT22;56075;51.264;7.150;2023-06-26T11:12:44;24.50;91.20
20833;DHT22;56075;51.264;7.150;2023-06-26T11:15:17;24.50;91.20
20833;DHT22;56075;51.264;7.150;2023-06-26T11:17:49;24.70;91.10
20833;DHT22;56075;51.264;7.150;2023-06-26T11:20:21;24.80;90.70
20833;DHT22;56075;51.264;7.150;2023-06-26T11:22:52;24.90;90.40
20833;DHT22;56075;51.264;7.150;2023-06-26T11:25:25;24.90;90.20
20833;DHT22;56075;51.264;7.150;2023-06-26T11:27:56;25.00;89.50
20833;DHT22;56075;51.264;7.150;2023-06-26T11:30:27;25.10;89.10
20833;DHT22;56075;51.264;7.150;2023-06-26T11:33:06;25.30;88.90
20833;DHT22;56075;51.264;7.150;2023-06-26T11:35:37;25.50;88.50
20833;DHT22;56075;51.264;7.150;2023-06-26T11:38:09;25.70;88.00
20833;DHT22;56075;51.264;7.150;2023-06-26T11:40:40;25.60;87.60
20833;DHT22;56075;51.264;7.150;2023-06-26T11:43:12;25.40;87.90
20833;DHT22;56075;51.264;7.150;2023-06-26T11:45:44;25.30;87.90
20833;DHT22;56075;51.264;7.150;2023-06-26T11:48:15;25.40;87.40
20833;DHT22;56075;51.264;7.150;2023-06-26T11:50:50;25.70;86.80
20833;DHT22;56075;51.264;7.150;2023-06-26T11:53:22;25.90;86.00
20833;DHT22;56075;51.264;7.150;2023-06-26T11:55:53;25.90;85.50
20833;DHT22;56075;51.264;7.150;2023-06-26T11:58:24;26.00;85.30
20833;DHT22;56075;51.264;7.150;2023-06-26T12:00:55;26.70;85.90
20833;DHT22;56075;51.264;7.150;2023-06-26T12:03:26;25.90;85.00
20833;DHT22;56075;51.264;7.150;2023-06-26T12:05:58;26.10;84.30
20833;DHT22;56075;51.264;7.150;2023-06-26T12:08:29;26.30;83.10
20833;DHT22;56075;51.264;7.150;2023-06-26T12:11:00;26.30;82.20
20833;DHT22;56075;51.264;7.150;2023-06-26T12:13:32;27.00;82.80
20833;DHT22;56075;51.264;7.150;2023-06-26T12:16:04;26.30;81.60
20833;DHT22;56075;51.264;7.150;2023-06-26T12:18:35;25.60;79.10
20833;DHT22;56075;51.264;7.150;2023-06-26T12:21:07;26.80;78.50
20833;DHT22;56075;51.264;7.150;2023-06-26T12:23:41;27.30;76.70
20833;DHT22;56075;51.264;7.150;2023-06-26T12:26:21;27.50;76.30
20833;DHT22;56075;51.264;7.150;2023-06-26T12:28:52;27.80;73.60
20833;DHT22;56075;51.264;7.150;2023-06-26T12:31:24;28.10;74.20
20833;DHT22;56075;51.264;7.150;2023-06-26T12:33:55;28.00;74.40
20833;DHT22;56075;51.264;7.150;2023-06-26T12:36:26;28.30;74.50
20833;DHT22;56075;51.264;7.150;2023-06-26T12:39:01;27.60;74.70
20833;DHT22;56075;51.264;7.150;2023-06-26T12:41:32;27.40;75.40
20833;DHT22;56075;51.264;7.150;2023-06-26T12:44:03;27.30;76.20
20833;DHT22;56075;51.264;7.150;2023-06-26T12:46:34;27.10;76.20
20833;DHT22;56075;51.264;7.150;2023-06-26T12:49:08;26.80;75.50
20833;DHT22;56075;51.264;7.150;2023-06-26T12:51:43;26.80;76.90
20833;DHT22;56075;51.264;7.150;2023-06-26T12:54:14;27.30;77.30
20833;DHT22;56075;51.264;7.150;2023-06-26T12:56:45;26.60;76.80
20833;DHT22;56075;51.264;7.150;2023-06-26T12:59:16;26.50;76.30
20833;DHT22;56075;51.264;7.150;2023-06-26T13:01:47;27.00;76.60
20833;DHT22;56075;51.264;7.150;2023-06-26T13:04:19;26.40;76.10
20833;DHT22;56075;51.264;7.150;2023-06-26T13:06:50;26.00;75.90
20833;DHT22;56075;51.264;7.150;2023-06-26T13:09:23;25.80;76.30
20833;DHT22;56075;51.264;7.150;2023-06-26T13:11:55;25.70;76.70
20833;DHT22;56075;51.264;7.150;2023-06-26T13:14:26;25.80;76.10
20833;DHT22;56075;51.264;7.150;2023-06-26T13:16:57;26.50;76.70
20833;DHT22;56075;51.264;7.150;2023-06-26T13:19:28;25.60;75.80
20833;DHT22;56075;51.264;7.150;2023-06-26T13:21:59;25.60;75.30
20833;DHT22;56075;51.264;7.150;2023-06-26T13:24:31;25.50;75.60
20833;DHT22;56075;51.264;7.150;2023-06-26T13:27:02;25.80;75.60
20833;DHT22;56075;51.264;7.150;2023-06-26T13:29:33;25.90;75.20
20833;DHT22;56075;51.264;7.150;2023-06-26T13:32:04;26.50;73.80
20833;DHT22;56075;51.264;7.150;2023-06-26T13:34:36;26.50;72.80
20833;DHT22;56075;51.264;7.150;2023-06-26T13:37:07;26.80;72.20
20833;DHT22;56075;51.264;7.150;2023-06-26T13:39:38;27.40;71.70
20833;DHT22;56075;51.264;7.150;2023-06-26T13:42:09;27.40;70.80
20833;DHT22;56075;51.264;7.150;2023-06-26T13:44:40;27.70;69.70
20833;DHT22;56075;51.264;7.150;2023-06-26T13:47:13;27.80;69.40
20833;DHT22;56075;51.264;7.150;2023-06-26T13:49:44;27.60;69.90
20833;DHT22;56075;51.264;7.150;2023-06-26T13:52:15;27.20;70.00
20833;DHT22;56075;51.264;7.150;2023-06-26T13:54:46;26.70;69.50
20833;DHT22;56075;51.264;7.150;2023-06-26T13:57:18;27.10;69.10
20833;DHT22;56075;51.264;7.150;2023-06-26T13:59:53;27.00;70.00
20833;DHT22;56075;51.264;7.150;2023-06-26T14:02:24;27.70;67.80
20833;DHT22;56075;51.264;7.150;2023-06-26T14:04:55;28.10;69.00
20833;DHT22;56075;51.264;7.150;2023-06-26T14:07:26;27.80;67.70
20833;DHT22;56075;51.264;7.150;2023-06-26T14:09:57;27.80;67.50
20833;DHT22;56075;51.264;7.150;2023-06-26T14:12:28;27.60;68.00
20833;DHT22;56075;51.264;7.150;2023-06-26T14:14:59;27.30;68.90
20833;DHT22;56075;51.264;7.150;2023-06-26T14:17:31;27.30;68.80
20833;DHT22;56075;51.264;7.150;2023-06-26T14:20:02;27.20;69.00
20833;DHT22;56075;51.264;7.150;2023-06-26T14:22:36;27.10;69.30
20833;DHT22;56075;51.264;7.150;2023-06-26T14:25:08;26.80;69.50
20833;DHT22;56075;51.264;7.150;2023-06-26T14:27:40;26.60;70.30
20833;DHT22;56075;51.264;7.150;2023-06-26T14:30:12;26.60;70.20
20833;DHT22;56075;51.264;7.150;2023-06-26T14:32:43;26.50;70.20
20833;DHT22;56075;51.264;7.150;2023-06-26T14:35:14;26.50;69.60
20833;DHT22;56075;51.264;7.150;2023-06-26T14:37:45;27.30;69.00
20833;DHT22;56075;51.264;7.150;2023-06-26T14:40:16;26.90;67.60
20833;DHT22;56075;51.264;7.150;2023-06-26T14:42:48;26.90;68.10
20833;DHT22;56075;51.264;7.150;2023-06-26T14:45:19;26.90;67.80
20833;DHT22;56075;51.264;7.150;2023-06-26T14:47:50;27.00;66.90
20833;DHT22;56075;51.264;7.150;2023-06-26T14:50:21;27.40;65.70
20833;DHT22;56075;51.264;7.150;2023-06-26T14:52:52;28.00;65.00
20833;DHT22;56075;51.264;7.150;2023-06-26T14:55:24;28.50;63.90
20833;DHT22;56075;51.264;7.150;2023-06-26T14:57:55;28.90;63.00
20833;DHT22;56075;51.264;7.150;2023-06-26T15:00:26;29.10;62.40
20833;DHT22;56075;51.264;7.150;2023-06-26T15:02:57;29.00;62.50
20833;DHT22;56075;51.264;7.150;2023-06-26T15:05:29;28.80;62.80
20833;DHT22;56075;51.264;7.150;2023-06-26T15:08:00;28.60;63.10
20833;DHT22;56075;51.264;7.150;2023-06-26T15:10:32;28.30;64.10
20833;DHT22;56075;51.264;7.150;2023-06-26T15:13:03;28.00;64.70
20833;DHT22;56075;51.264;7.150;2023-06-26T15:15:34;27.60;64.80
20833;DHT22;56075;51.264;7.150;2023-06-26T15:18:05;27.70;65.00
20833;DHT22;56075;51.264;7.150;2023-06-26T15:20:37;27.50;65.50
20833;DHT22;56075;51.264;7.150;2023-06-26T15:23:08;27.30;65.70
20833;DHT22;56075;51.264;7.150;2023-06-26T15:25:39;27.20;65.90
20833;DHT22;56075;51.264;7.150;2023-06-26T15:28:10;26.90;66.30
20833;DHT22;56075;51.264;7.150;2023-06-26T15:30:41;26.60;67.00
20833;DHT22;56075;51.264;7.150;2023-06-26T15:33:13;26.30;67.90
20833;DHT22;56075;51.264;7.150;2023-06-26T15:35:44;26.00;68.40
20833;DHT22;56075;51.264;7.150;2023-06-26T15:38:15;25.90;69.10
20833;DHT22;56075;51.264;7.150;2023-06-26T15:40:46;25.60;69.40
20833;DHT22;56075;51.264;7.150;2023-06-26T15:43:17;25.40;69.70
20833;DHT22;56075;51.264;7.150;2023-06-26T15:45:48;25.40;69.90
20833;DHT22;56075;51.264;7.150;2023-06-26T15:48:19;25.20;69.50
20833;DHT22;56075;51.264;7.150;2023-06-26T15:50:51;25.50;69.80
20833;DHT22;56075;51.264;7.150;2023-06-26T15:53:34;25.40;69.80
20833;DHT22;56075;51.264;7.150;2023-06-26T15:56:10;26.40;70.40
20833;DHT22;56075;51.264;7.150;2023-06-26T15:58:41;25.70;69.60
20833;DHT22;56075;51.264;7.150;2023-06-26T16:01:15;26.00;69.40
20833;DHT22;56075;51.264;7.150;2023-06-26T16:03:47;26.40;68.50
20833;DHT22;56075;51.264;7.150;2023-06-26T16:06:18;26.80;67.30
20833;DHT22;56075;51.264;7.150;2023-06-26T16:08:49;27.00;66.40
20833;DHT22;56075;51.264;7.150;2023-06-26T16:11:20;26.90;65.70
20833;DHT22;56075;51.264;7.150;2023-06-26T16:13:51;27.40;65.30